sensor_id;sensor_type;location;lat;lon;timestamp;pressure;altitude;pressure_sealevel;temperature;humidity
50632;BME280;49583;45.590;-122.498;2023-05-19T00:02:37;100923.42;;;31.03;37.03
50632;BME280;49583;45.590;-122.498;2023-05-19T00:05:09;100925.91;;;31.05;37.13
50632;BME280;49583;45.590;-122.498;2023-05-19T00:07:25;100925.16;;;31.02;36.81
50632;BME280;49583;45.590;-122.498;2023-05-19T00:09:58;100921.48;;;30.95;37.00
50632;BME280;49583;45.590;-122.498;2023-05-19T00:12:28;100923.95;;;30.96;37.26
50632;BME280;49583;45.590;-122.498;2023-05-19T00:14:49;100926.80;;;31.06;37.56
50632;BME280;49583;45.590;-122.498;2023-05-19T00:17:10;100927.41;;;31.20;37.88
50632;BME280;49583;45.590;-122.498;2023-05-19T00:19:32;100926.25;;;31.36;38.39
50632;BME280;49583;45.590;-122.498;2023-05-19T00:22:02;100929.71;;;31.56;38.29
50632;BME280;49583;45.590;-122.498;2023-05-19T00:24:22;100935.70;;;31.74;38.25
50632;BME280;49583;45.590;-122.498;2023-05-19T00:26:31;100934.31;;;31.91;37.74
50632;BME280;49583;45.590;-122.498;2023-05-19T00:28:43;100933.48;;;32.02;37.66
50632;BME280;49583;45.590;-122.498;2023-05-19T00:31:13;100936.67;;;32.19;37.48
50632;BME280;49583;45.590;-122.498;2023-05-19T00:33:33;100939.47;;;32.35;37.26
50632;BME280;49583;45.590;-122.498;2023-05-19T00:35:42;100940.40;;;32.41;37.04
50632;BME280;49583;45.590;-122.498;2023-05-19T00:38:12;100946.10;;;32.47;36.96
50632;BME280;49583;45.590;-122.498;2023-05-19T00:40:42;100946.48;;;32.50;36.59
50632;BME280;49583;45.590;-122.498;2023-05-19T00:43:11;100950.81;;;32.49;36.64
50632;BME280;49583;45.590;-122.498;2023-05-19T00:45:41;100950.66;;;32.43;36.42
50632;BME280;49583;45.590;-122.498;2023-05-19T00:48:02;100950.94;;;32.31;36.29
50632;BME280;49583;45.590;-122.498;2023-05-19T00:50:32;100950.02;;;32.21;36.44
50632;BME280;49583;45.590;-122.498;2023-05-19T00:53:02;100959.50;;;32.10;36.13
50632;BME280;49583;45.590;-122.498;2023-05-19T00:55:32;100955.95;;;31.98;36.20
50632;BME280;49583;45.590;-122.498;2023-05-19T00:58:04;100957.41;;;31.84;36.46
50632;BME280;49583;45.590;-122.498;2023-05-19T01:00:28;100957.08;;;31.70;36.22
50632;BME280;49583;45.590;-122.498;2023-05-19T01:02:58;100959.95;;;31.62;36.27
50632;BME280;49583;45.590;-122.498;2023-05-19T01:05:19;100958.86;;;31.53;36.28
50632;BME280;49583;45.590;-122.498;2023-05-19T01:07:39;100960.81;;;31.43;36.10
50632;BME280;49583;45.590;-122.498;2023-05-19T01:09:53;100962.32;;;31.36;36.25
50632;BME280;49583;45.590;-122.498;2023-05-19T01:12:22;100962.73;;;31.27;36.28
50632;BME280;49583;45.590;-122.498;2023-05-19T01:14:52;100961.07;;;31.18;36.27
50632;BME280;49583;45.590;-122.498;2023-05-19T01:17:06;100964.92;;;31.09;36.23
50632;BME280;49583;45.590;-122.498;2023-05-19T01:19:35;100965.48;;;30.98;36.26
50632;BME280;49583;45.590;-122.498;2023-05-19T01:22:21;100964.71;;;30.87;36.62
50632;BME280;49583;45.590;-122.498;2023-05-19T01:27:44;100968.16;;;30.70;36.84
50632;BME280;49583;45.590;-122.498;2023-05-19T01:33:01;100973.45;;;30.55;36.95
50632;BME280;49583;45.590;-122.498;2023-05-19T01:35:31;100978.26;;;30.45;36.68
50632;BME280;49583;45.590;-122.498;2023-05-19T01:37:56;100979.23;;;30.33;36.69
50632;BME280;49583;45.590;-122.498;2023-05-19T01:40:12;100977.48;;;30.17;36.72
50632;BME280;49583;45.590;-122.498;2023-05-19T01:42:35;100982.95;;;30.03;36.66
50632;BME280;49583;45.590;-122.498;2023-05-19T01:44:50;100986.39;;;29.93;36.77
50632;BME280;49583;45.590;-122.498;2023-05-19T01:47:21;100989.05;;;29.79;36.88
50632;BME280;49583;45.590;-122.498;2023-05-19T01:49:51;100992.15;;;29.67;37.23
50632;BME280;49583;45.590;-122.498;2023-05-19T01:52:20;100990.04;;;29.56;37.34
50632;BME280;49583;45.590;-122.498;2023-05-19T01:54:30;100995.79;;;29.48;37.44
50632;BME280;49583;45.590;-122.498;2023-05-19T01:57:07;101000.77;;;29.39;37.64
50632;BME280;49583;45.590;-122.498;2023-05-19T01:59:39;101000.87;;;29.32;37.66
50632;BME280;49583;45.590;-122.498;2023-05-19T02:01:56;100998.36;;;29.25;37.72
50632;BME280;49583;45.590;-122.498;2023-05-19T02:04:32;101006.13;;;29.17;37.91
50632;BME280;49583;45.590;-122.498;2023-05-19T02:07:02;101006.50;;;29.10;37.92
50632;BME280;49583;45.590;-122.498;2023-05-19T02:09:17;101011.39;;;29.04;38.06
50632;BME280;49583;45.590;-122.498;2023-05-19T02:11:55;101011.71;;;28.96;37.89
50632;BME280;49583;45.590;-122.498;2023-05-19T02:14:32;101019.64;;;28.86;38.01
50632;BME280;49583;45.590;-122.498;2023-05-19T02:17:02;101019.33;;;28.75;38.00
50632;BME280;49583;45.590;-122.498;2023-05-19T02:19:26;101024.39;;;28.67;38.12
50632;BME280;49583;45.590;-122.498;2023-05-19T02:21:55;101023.31;;;28.59;38.40
50632;BME280;49583;45.590;-122.498;2023-05-19T02:24:25;101025.35;;;28.54;38.52
50632;BME280;49583;45.590;-122.498;2023-05-19T02:26:54;101031.02;;;28.48;38.69
50632;BME280;49583;45.590;-122.498;2023-05-19T02:29:13;101034.02;;;28.44;38.69
50632;BME280;49583;45.590;-122.498;2023-05-19T02:31:34;101040.48;;;28.38;38.85
50632;BME280;49583;45.590;-122.498;2023-05-19T02:33:43;101046.39;;;28.30;38.81
50632;BME280;49583;45.590;-122.498;2023-05-19T02:36:13;101050.60;;;28.23;38.81
50632;BME280;49583;45.590;-122.498;2023-05-19T02:38:26;101051.86;;;28.17;38.86
50632;BME280;49583;45.590;-122.498;2023-05-19T02:40:45;101057.42;;;28.12;39.05
50632;BME280;49583;45.590;-122.498;2023-05-19T02:43:15;101062.13;;;28.06;39.05
50632;BME280;49583;45.590;-122.498;2023-05-19T02:45:44;101062.49;;;28.00;39.16
50632;BME280;49583;45.590;-122.498;2023-05-19T02:47:57;101061.95;;;27.90;39.16
50632;BME280;49583;45.590;-122.498;2023-05-19T02:50:17;101065.06;;;27.80;39.33
50632;BME280;49583;45.590;-122.498;2023-05-19T02:52:27;101066.66;;;27.73;39.26
50632;BME280;49583;45.590;-122.498;2023-05-19T02:54:39;101069.96;;;27.63;39.43
50632;BME280;49583;45.590;-122.498;2023-05-19T02:56:59;101069.63;;;27.54;39.43
50632;BME280;49583;45.590;-122.498;2023-05-19T02:59:23;101073.79;;;27.46;39.62
50632;BME280;49583;45.590;-122.498;2023-05-19T03:01:33;101075.09;;;27.40;39.73
50632;BME280;49583;45.590;-122.498;2023-05-19T03:04:04;101079.09;;;27.34;39.79
50632;BME280;49583;45.590;-122.498;2023-05-19T03:06:23;101077.44;;;27.27;39.92
50632;BME280;49583;45.590;-122.498;2023-05-19T03:08:43;101080.81;;;27.18;39.89
50632;BME280;49583;45.590;-122.498;2023-05-19T03:11:04;101081.25;;;27.08;40.20
50632;BME280;49583;45.590;-122.498;2023-05-19T03:13:16;101087.24;;;26.97;40.22
50632;BME280;49583;45.590;-122.498;2023-05-19T03:15:26;101090.11;;;26.87;40.16
50632;BME280;49583;45.590;-122.498;2023-05-19T03:17:56;101093.23;;;26.76;40.27
50632;BME280;49583;45.590;-122.498;2023-05-19T03:20:07;101097.67;;;26.70;40.45
50632;BME280;49583;45.590;-122.498;2023-05-19T03:22:28;101104.42;;;26.61;40.67
50632;BME280;49583;45.590;-122.498;2023-05-19T03:24:57;101104.71;;;26.52;40.74
50632;BME280;49583;45.590;-122.498;2023-05-19T03:27:17;101110.52;;;26.42;40.78
50632;BME280;49583;45.590;-122.498;2023-05-19T03:29:29;101118.50;;;26.32;40.83
50632;BME280;49583;45.590;-122.498;2023-05-19T03:31:39;101120.01;;;26.24;40.92
50632;BME280;49583;45.590;-122.498;2023-05-19T03:34:08;101124.46;;;26.16;41.05
50632;BME280;49583;45.590;-122.498;2023-05-19T03:36:20;101126.23;;;26.09;41.08
50632;BME280;49583;45.590;-122.498;2023-05-19T03:38:50;101129.15;;;26.01;41.11
50632;BME280;49583;45.590;-122.498;2023-05-19T03:41:20;101132.27;;;25.90;41.09
50632;BME280;49583;45.590;-122.498;2023-05-19T03:43:50;101134.64;;;25.79;41.06
50632;BME280;49583;45.590;-122.498;2023-05-19T03:46:19;101136.37;;;25.69;41.13
50632;BME280;49583;45.590;-122.498;2023-05-19T03:48:58;101136.45;;;25.59;41.39
50632;BME280;49583;45.590;-122.498;2023-05-19T03:51:31;101138.08;;;25.51;41.23
50632;BME280;49583;45.590;-122.498;2023-05-19T03:54:10;101145.09;;;25.40;41.47
50632;BME280;49583;45.590;-122.498;2023-05-19T03:56:30;101150.20;;;25.30;41.42
50632;BME280;49583;45.590;-122.498;2023-05-19T03:59:00;101156.21;;;25.19;41.64
50632;BME280;49583;45.590;-122.498;2023-05-19T04:01:13;101159.10;;;25.12;41.66
50632;BME280;49583;45.590;-122.498;2023-05-19T04:03:31;101161.26;;;25.04;41.80
50632;BME280;49583;45.590;-122.498;2023-05-19T04:05:44;101164.52;;;24.97;41.85
50632;BME280;49583;45.590;-122.498;2023-05-19T04:07:54;101170.77;;;24.88;42.00
50632;BME280;49583;45.590;-122.498;2023-05-19T04:10:09;101176.11;;;24.80;41.99
50632;BME280;49583;45.590;-122.498;2023-05-19T04:12:22;101177.67;;;24.74;42.10
50632;BME280;49583;45.590;-122.498;2023-05-19T04:14:43;101181.71;;;24.67;42.16
50632;BME280;49583;45.590;-122.498;2023-05-19T04:16:55;101190.00;;;24.60;42.30
50632;BME280;49583;45.590;-122.498;2023-05-19T04:19:25;101195.23;;;24.52;42.41
50632;BME280;49583;45.590;-122.498;2023-05-19T04:21:38;101200.56;;;24.47;42.55
50632;BME280;49583;45.590;-122.498;2023-05-19T04:24:08;101205.40;;;24.41;42.55
50632;BME280;49583;45.590;-122.498;2023-05-19T04:26:28;101202.62;;;24.34;42.47
50632;BME280;49583;45.590;-122.498;2023-05-19T04:29:01;101207.59;;;24.25;42.53
50632;BME280;49583;45.590;-122.498;2023-05-19T04:31:14;101208.39;;;24.14;42.60
50632;BME280;49583;45.590;-122.498;2023-05-19T04:33:44;101210.73;;;24.05;42.64
50632;BME280;49583;45.590;-122.498;2023-05-19T04:36:14;101212.80;;;23.96;42.87
50632;BME280;49583;45.590;-122.498;2023-05-19T04:38:41;101214.74;;;23.88;42.84
50632;BME280;49583;45.590;-122.498;2023-05-19T04:40:53;101217.70;;;23.82;42.95
50632;BME280;49583;45.590;-122.498;2023-05-19T04:43:22;101220.92;;;23.75;42.93
50632;BME280;49583;45.590;-122.498;2023-05-19T04:45:44;101227.39;;;23.65;42.88
50632;BME280;49583;45.590;-122.498;2023-05-19T04:48:04;101227.39;;;23.58;43.19
50632;BME280;49583;45.590;-122.498;2023-05-19T04:50:27;101235.13;;;23.52;43.22
50632;BME280;49583;45.590;-122.498;2023-05-19T04:52:59;101241.48;;;23.45;43.30
50632;BME280;49583;45.590;-122.498;2023-05-19T04:55:13;101243.09;;;23.37;43.53
50632;BME280;49583;45.590;-122.498;2023-05-19T04:57:24;101248.57;;;23.31;43.48
50632;BME280;49583;45.590;-122.498;2023-05-19T04:59:36;101248.02;;;23.23;43.56
50632;BME280;49583;45.590;-122.498;2023-05-19T05:01:47;101251.06;;;23.16;43.61
50632;BME280;49583;45.590;-122.498;2023-05-19T05:03:56;101256.77;;;23.10;43.73
50632;BME280;49583;45.590;-122.498;2023-05-19T05:06:06;101259.98;;;23.02;43.81
50632;BME280;49583;45.590;-122.498;2023-05-19T05:08:16;101262.67;;;22.95;43.90
50632;BME280;49583;45.590;-122.498;2023-05-19T05:10:50;101258.95;;;22.86;44.12
50632;BME280;49583;45.590;-122.498;2023-05-19T05:13:05;101265.45;;;22.80;44.13
50632;BME280;49583;45.590;-122.498;2023-05-19T05:15:23;101270.76;;;22.73;44.31
50632;BME280;49583;45.590;-122.498;2023-05-19T05:17:40;101274.70;;;22.66;44.41
50632;BME280;49583;45.590;-122.498;2023-05-19T05:19:51;101272.38;;;22.58;44.46
50632;BME280;49583;45.590;-122.498;2023-05-19T05:22:05;101276.48;;;22.51;44.63
50632;BME280;49583;45.590;-122.498;2023-05-19T05:24:19;101273.80;;;22.42;44.71
50632;BME280;49583;45.590;-122.498;2023-05-19T05:26:40;101274.19;;;22.33;44.84
50632;BME280;49583;45.590;-122.498;2023-05-19T05:28:50;101278.92;;;22.26;44.90
50632;BME280;49583;45.590;-122.498;2023-05-19T05:31:10;101277.65;;;22.17;44.99
50632;BME280;49583;45.590;-122.498;2023-05-19T05:33:20;101282.31;;;22.10;45.13
50632;BME280;49583;45.590;-122.498;2023-05-19T05:35:35;101285.13;;;22.04;45.50
50632;BME280;49583;45.590;-122.498;2023-05-19T05:37:45;101287.30;;;21.97;45.55
50632;BME280;49583;45.590;-122.498;2023-05-19T05:39:55;101288.81;;;21.90;45.64
50632;BME280;49583;45.590;-122.498;2023-05-19T05:42:18;101293.04;;;21.85;45.97
50632;BME280;49583;45.590;-122.498;2023-05-19T05:44:40;101293.45;;;21.78;45.96
50632;BME280;49583;45.590;-122.498;2023-05-19T05:47:11;101298.00;;;21.73;46.11
50632;BME280;49583;45.590;-122.498;2023-05-19T05:49:22;101298.59;;;21.65;46.16
50632;BME280;49583;45.590;-122.498;2023-05-19T05:51:34;101298.29;;;21.59;46.49
50632;BME280;49583;45.590;-122.498;2023-05-19T05:53:52;101302.74;;;21.52;46.60
50632;BME280;49583;45.590;-122.498;2023-05-19T05:56:23;101304.90;;;21.46;46.71
50632;BME280;49583;45.590;-122.498;2023-05-19T05:58:53;101303.95;;;21.39;46.88
50632;BME280;49583;45.590;-122.498;2023-05-19T06:01:15;101301.89;;;21.33;46.87
50632;BME280;49583;45.590;-122.498;2023-05-19T06:03:27;101304.59;;;21.28;47.01
50632;BME280;49583;45.590;-122.498;2023-05-19T06:05:51;101302.44;;;21.22;47.11
50632;BME280;49583;45.590;-122.498;2023-05-19T06:08:20;101303.08;;;21.11;47.17
50632;BME280;49583;45.590;-122.498;2023-05-19T06:10:33;101306.13;;;21.03;47.42
50632;BME280;49583;45.590;-122.498;2023-05-19T06:12:56;101310.13;;;20.95;47.52
50632;BME280;49583;45.590;-122.498;2023-05-19T06:15:09;101313.08;;;20.88;47.58
50632;BME280;49583;45.590;-122.498;2023-05-19T06:17:48;101316.27;;;20.79;47.66
50632;BME280;49583;45.590;-122.498;2023-05-19T06:20:18;101317.61;;;20.72;47.87
50632;BME280;49583;45.590;-122.498;2023-05-19T06:22:28;101313.61;;;20.66;47.91
50632;BME280;49583;45.590;-122.498;2023-05-19T06:24:48;101320.53;;;20.58;48.16
50632;BME280;49583;45.590;-122.498;2023-05-19T06:27:11;101326.41;;;20.50;48.22
50632;BME280;49583;45.590;-122.498;2023-05-19T06:29:33;101334.98;;;20.42;48.45
50632;BME280;49583;45.590;-122.498;2023-05-19T06:31:46;101336.69;;;20.34;48.56
50632;BME280;49583;45.590;-122.498;2023-05-19T06:33:56;101336.82;;;20.27;48.64
50632;BME280;49583;45.590;-122.498;2023-05-19T06:36:06;101340.92;;;20.21;48.75
50632;BME280;49583;45.590;-122.498;2023-05-19T06:38:36;101338.75;;;20.15;48.88
50632;BME280;49583;45.590;-122.498;2023-05-19T06:41:06;101339.74;;;20.08;49.01
50632;BME280;49583;45.590;-122.498;2023-05-19T06:43:26;101337.02;;;20.01;49.07
50632;BME280;49583;45.590;-122.498;2023-05-19T06:45:39;101340.88;;;19.94;49.25
50632;BME280;49583;45.590;-122.498;2023-05-19T06:47:50;101342.84;;;19.85;49.32
50632;BME280;49583;45.590;-122.498;2023-05-19T06:50:04;101347.34;;;19.76;49.48
50632;BME280;49583;45.590;-122.498;2023-05-19T06:52:17;101352.23;;;19.68;49.62
50632;BME280;49583;45.590;-122.498;2023-05-19T06:54:30;101357.73;;;19.62;49.75
50632;BME280;49583;45.590;-122.498;2023-05-19T06:56:43;101358.09;;;19.56;49.82
50632;BME280;49583;45.590;-122.498;2023-05-19T06:59:13;101362.39;;;19.48;49.99
50632;BME280;49583;45.590;-122.498;2023-05-19T07:01:23;101364.94;;;19.42;50.07
50632;BME280;49583;45.590;-122.498;2023-05-19T07:03:39;101369.25;;;19.35;50.22
50632;BME280;49583;45.590;-122.498;2023-05-19T07:05:49;101370.38;;;19.29;50.38
50632;BME280;49583;45.590;-122.498;2023-05-19T07:08:02;101366.91;;;19.22;50.55
50632;BME280;49583;45.590;-122.498;2023-05-19T07:10:12;101364.95;;;19.17;50.59
50632;BME280;49583;45.590;-122.498;2023-05-19T07:12:33;101369.31;;;19.13;50.72
50632;BME280;49583;45.590;-122.498;2023-05-19T07:14:53;101370.52;;;19.07;50.77
50632;BME280;49583;45.590;-122.498;2023-05-19T07:17:04;101379.80;;;19.05;51.00
50632;BME280;49583;45.590;-122.498;2023-05-19T07:19:19;101380.45;;;19.00;50.96
50632;BME280;49583;45.590;-122.498;2023-05-19T07:21:29;101378.80;;;18.96;51.08
50632;BME280;49583;45.590;-122.498;2023-05-19T07:23:38;101382.20;;;18.91;51.15
50632;BME280;49583;45.590;-122.498;2023-05-19T07:25:47;101385.40;;;18.88;51.34
50632;BME280;49583;45.590;-122.498;2023-05-19T07:28:17;101383.25;;;18.83;51.58
50632;BME280;49583;45.590;-122.498;2023-05-19T07:30:30;101383.27;;;18.80;51.61
50632;BME280;49583;45.590;-122.498;2023-05-19T07:32:40;101384.13;;;18.76;51.72
50632;BME280;49583;45.590;-122.498;2023-05-19T07:35:10;101382.72;;;18.72;51.81
50632;BME280;49583;45.590;-122.498;2023-05-19T07:37:23;101384.05;;;18.68;51.91
50632;BME280;49583;45.590;-122.498;2023-05-19T07:39:53;101389.14;;;18.65;51.98
50632;BME280;49583;45.590;-122.498;2023-05-19T07:42:13;101385.27;;;18.60;52.14
50632;BME280;49583;45.590;-122.498;2023-05-19T07:44:26;101385.23;;;18.56;52.08
50632;BME280;49583;45.590;-122.498;2023-05-19T07:46:58;101388.88;;;18.50;52.27
50632;BME280;49583;45.590;-122.498;2023-05-19T07:49:18;101386.41;;;18.44;52.38
50632;BME280;49583;45.590;-122.498;2023-05-19T07:51:32;101386.89;;;18.38;52.48
50632;BME280;49583;45.590;-122.498;2023-05-19T07:53:42;101390.53;;;18.34;52.63
50632;BME280;49583;45.590;-122.498;2023-05-19T07:56:01;101390.52;;;18.29;52.65
50632;BME280;49583;45.590;-122.498;2023-05-19T07:58:11;101393.45;;;18.25;52.78
50632;BME280;49583;45.590;-122.498;2023-05-19T08:00:24;101395.26;;;18.21;52.87
50632;BME280;49583;45.590;-122.498;2023-05-19T08:02:33;101401.42;;;18.16;53.00
50632;BME280;49583;45.590;-122.498;2023-05-19T08:04:52;101402.85;;;18.12;53.03
50632;BME280;49583;45.590;-122.498;2023-05-19T08:07:14;101397.77;;;18.07;53.17
50632;BME280;49583;45.590;-122.498;2023-05-19T08:09:33;101396.73;;;18.04;53.30
50632;BME280;49583;45.590;-122.498;2023-05-19T08:11:46;101396.11;;;18.02;53.40
50632;BME280;49583;45.590;-122.498;2023-05-19T08:14:05;101395.45;;;17.98;53.51
50632;BME280;49583;45.590;-122.498;2023-05-19T08:16:24;101392.76;;;17.96;53.64
50632;BME280;49583;45.590;-122.498;2023-05-19T08:18:33;101391.56;;;17.92;53.62
50632;BME280;49583;45.590;-122.498;2023-05-19T08:20:43;101392.83;;;17.90;53.69
50632;BME280;49583;45.590;-122.498;2023-05-19T08:22:56;101398.05;;;17.87;53.84
50632;BME280;49583;45.590;-122.498;2023-05-19T08:25:06;101397.95;;;17.84;53.86
50632;BME280;49583;45.590;-122.498;2023-05-19T08:27:26;101399.92;;;17.80;53.95
50632;BME280;49583;45.590;-122.498;2023-05-19T08:29:35;101400.54;;;17.77;54.12
50632;BME280;49583;45.590;-122.498;2023-05-19T08:31:48;101404.01;;;17.73;54.04
50632;BME280;49583;45.590;-122.498;2023-05-19T08:34:17;101405.98;;;17.69;54.19
50632;BME280;49583;45.590;-122.498;2023-05-19T08:36:27;101410.94;;;17.66;54.41
50632;BME280;49583;45.590;-122.498;2023-05-19T08:38:37;101412.14;;;17.63;54.45
50632;BME280;49583;45.590;-122.498;2023-05-19T08:40:50;101411.45;;;17.60;54.50
50632;BME280;49583;45.590;-122.498;2023-05-19T08:43:19;101413.89;;;17.56;54.63
50632;BME280;49583;45.590;-122.498;2023-05-19T08:45:32;101416.79;;;17.52;54.64
50632;BME280;49583;45.590;-122.498;2023-05-19T08:47:54;101414.31;;;17.47;54.73
50632;BME280;49583;45.590;-122.498;2023-05-19T08:50:16;101414.60;;;17.44;54.90
50632;BME280;49583;45.590;-122.498;2023-05-19T08:52:30;101414.45;;;17.40;54.92
50632;BME280;49583;45.590;-122.498;2023-05-19T08:54:56;101416.78;;;17.37;55.03
50632;BME280;49583;45.590;-122.498;2023-05-19T08:57:12;101418.60;;;17.34;55.19
50632;BME280;49583;45.590;-122.498;2023-05-19T08:59:22;101416.21;;;17.32;55.30
50632;BME280;49583;45.590;-122.498;2023-05-19T09:01:33;101416.66;;;17.27;55.28
50632;BME280;49583;45.590;-122.498;2023-05-19T09:03:47;101413.53;;;17.21;55.37
50632;BME280;49583;45.590;-122.498;2023-05-19T09:06:17;101413.91;;;17.16;55.44
50632;BME280;49583;45.590;-122.498;2023-05-19T09:08:27;101414.35;;;17.11;55.60
50632;BME280;49583;45.590;-122.498;2023-05-19T09:10:37;101414.41;;;17.08;55.73
50632;BME280;49583;45.590;-122.498;2023-05-19T09:12:50;101411.79;;;17.06;55.81
50632;BME280;49583;45.590;-122.498;2023-05-19T09:15:13;101414.45;;;17.02;55.86
50632;BME280;49583;45.590;-122.498;2023-05-19T09:17:27;101415.05;;;16.98;55.99
50632;BME280;49583;45.590;-122.498;2023-05-19T09:19:36;101418.05;;;16.95;56.03
50632;BME280;49583;45.590;-122.498;2023-05-19T09:22:11;101418.57;;;16.91;56.21
50632;BME280;49583;45.590;-122.498;2023-05-19T09:24:26;101423.51;;;16.89;56.28
50632;BME280;49583;45.590;-122.498;2023-05-19T09:26:40;101423.04;;;16.86;56.36
50632;BME280;49583;45.590;-122.498;2023-05-19T09:29:01;101425.60;;;16.82;56.37
50632;BME280;49583;45.590;-122.498;2023-05-19T09:31:10;101423.60;;;16.78;56.55
50632;BME280;49583;45.590;-122.498;2023-05-19T09:33:23;101426.74;;;16.75;56.60
50632;BME280;49583;45.590;-122.498;2023-05-19T09:35:47;101426.41;;;16.74;56.77
50632;BME280;49583;45.590;-122.498;2023-05-19T09:37:56;101418.90;;;16.71;56.77
50632;BME280;49583;45.590;-122.498;2023-05-19T09:40:08;101417.50;;;16.67;56.89
50632;BME280;49583;45.590;-122.498;2023-05-19T09:42:24;101419.45;;;16.64;56.95
50632;BME280;49583;45.590;-122.498;2023-05-19T09:45:02;101422.42;;;16.61;57.12
50632;BME280;49583;45.590;-122.498;2023-05-19T09:47:11;101423.32;;;16.58;57.19
50632;BME280;49583;45.590;-122.498;2023-05-19T09:49:33;101421.61;;;16.51;57.25
50632;BME280;49583;45.590;-122.498;2023-05-19T09:51:47;101423.34;;;16.51;57.36
50632;BME280;49583;45.590;-122.498;2023-05-19T09:54:15;101422.54;;;16.48;57.44
50632;BME280;49583;45.590;-122.498;2023-05-19T09:56:45;101427.17;;;16.45;57.60
50632;BME280;49583;45.590;-122.498;2023-05-19T09:58:54;101430.95;;;16.44;57.66
50632;BME280;49583;45.590;-122.498;2023-05-19T10:03:57;101428.04;;;16.38;57.89
50632;BME280;49583;45.590;-122.498;2023-05-19T10:06:10;101428.42;;;16.36;57.91
50632;BME280;49583;45.590;-122.498;2023-05-19T10:08:20;101428.16;;;16.33;57.97
50632;BME280;49583;45.590;-122.498;2023-05-19T10:10:31;101425.05;;;16.31;58.06
50632;BME280;49583;45.590;-122.498;2023-05-19T10:12:42;101428.48;;;16.29;58.13
50632;BME280;49583;45.590;-122.498;2023-05-19T10:14:51;101424.37;;;16.26;58.20
50632;BME280;49583;45.590;-122.498;2023-05-19T10:17:02;101425.70;;;16.24;58.24
50632;BME280;49583;45.590;-122.498;2023-05-19T10:19:12;101422.42;;;16.21;58.33
50632;BME280;49583;45.590;-122.498;2023-05-19T10:21:22;101429.19;;;16.19;58.26
50632;BME280;49583;45.590;-122.498;2023-05-19T10:23:31;101427.60;;;16.16;58.47
50632;BME280;49583;45.590;-122.498;2023-05-19T10:25:41;101426.14;;;16.13;58.52
50632;BME280;49583;45.590;-122.498;2023-05-19T10:27:56;101425.16;;;16.10;58.57
50632;BME280;49583;45.590;-122.498;2023-05-19T10:30:11;101426.56;;;16.08;58.75
50632;BME280;49583;45.590;-122.498;2023-05-19T10:32:25;101429.36;;;16.06;58.76
50632;BME280;49583;45.590;-122.498;2023-05-19T10:34:59;101428.45;;;16.03;58.95
50632;BME280;49583;45.590;-122.498;2023-05-19T10:37:19;101428.70;;;16.01;58.98
50632;BME280;49583;45.590;-122.498;2023-05-19T10:39:35;101426.55;;;16.00;59.06
50632;BME280;49583;45.590;-122.498;2023-05-19T10:41:49;101430.69;;;15.97;59.10
50632;BME280;49583;45.590;-122.498;2023-05-19T10:44:08;101432.48;;;15.94;59.18
50632;BME280;49583;45.590;-122.498;2023-05-19T10:46:17;101437.51;;;15.92;59.20
50632;BME280;49583;45.590;-122.498;2023-05-19T10:48:34;101434.77;;;15.89;59.34
50632;BME280;49583;45.590;-122.498;2023-05-19T10:50:45;101435.31;;;15.87;59.33
50632;BME280;49583;45.590;-122.498;2023-05-19T10:52:56;101431.83;;;15.85;59.44
50632;BME280;49583;45.590;-122.498;2023-05-19T10:55:08;101430.52;;;15.82;59.55
50632;BME280;49583;45.590;-122.498;2023-05-19T10:57:26;101434.11;;;15.79;59.62
50632;BME280;49583;45.590;-122.498;2023-05-19T10:59:38;101434.80;;;15.76;59.73
50632;BME280;49583;45.590;-122.498;2023-05-19T11:01:47;101435.63;;;15.74;59.71
50632;BME280;49583;45.590;-122.498;2023-05-19T11:03:56;101436.70;;;15.71;59.78
50632;BME280;49583;45.590;-122.498;2023-05-19T11:06:28;101438.89;;;15.69;59.89
50632;BME280;49583;45.590;-122.498;2023-05-19T11:08:38;101441.89;;;15.65;60.01
50632;BME280;49583;45.590;-122.498;2023-05-19T11:10:47;101440.79;;;15.63;60.11
50632;BME280;49583;45.590;-122.498;2023-05-19T11:12:59;101441.70;;;15.61;60.26
50632;BME280;49583;45.590;-122.498;2023-05-19T11:15:12;101444.30;;;15.60;60.23
50632;BME280;49583;45.590;-122.498;2023-05-19T11:17:23;101443.27;;;15.60;60.27
50632;BME280;49583;45.590;-122.498;2023-05-19T11:19:35;101442.85;;;15.59;60.43
50632;BME280;49583;45.590;-122.498;2023-05-19T11:21:48;101445.80;;;15.54;60.38
50632;BME280;49583;45.590;-122.498;2023-05-19T11:23:59;101448.45;;;15.50;60.49
50632;BME280;49583;45.590;-122.498;2023-05-19T11:26:09;101445.60;;;15.48;60.59
50632;BME280;49583;45.590;-122.498;2023-05-19T11:28:19;101444.55;;;15.47;60.76
50632;BME280;49583;45.590;-122.498;2023-05-19T11:30:35;101444.20;;;15.44;60.88
50632;BME280;49583;45.590;-122.498;2023-05-19T11:32:48;101445.07;;;15.44;60.85
50632;BME280;49583;45.590;-122.498;2023-05-19T11:34:57;101444.82;;;15.44;60.94
50632;BME280;49583;45.590;-122.498;2023-05-19T11:37:08;101448.42;;;15.42;61.00
50632;BME280;49583;45.590;-122.498;2023-05-19T11:39:17;101450.77;;;15.40;60.93
50632;BME280;49583;45.590;-122.498;2023-05-19T11:41:27;101450.20;;;15.38;61.01
50632;BME280;49583;45.590;-122.498;2023-05-19T11:43:37;101452.92;;;15.36;61.13
50632;BME280;49583;45.590;-122.498;2023-05-19T11:45:47;101450.77;;;15.35;61.24
50632;BME280;49583;45.590;-122.498;2023-05-19T11:47:58;101455.02;;;15.35;61.23